sensor_id;sensor_type;location;lat;lon;timestamp;P1;durP1;ratioP1;P2;durP2;ratioP2
26181;SDS011;13927;51.534;11.866;2022-11-20T00:01:16;23.70;;;15.02;;
26181;SDS011;13927;51.534;11.866;2022-11-20T00:03:44;29.38;;;16.17;;
26181;SDS011;13927;51.534;11.866;2022-11-20T00:06:11;28.70;;;16.98;;
26181;SDS011;13927;51.534;11.866;2022-11-20T00:08:42;27.45;;;16.60;;
26181;SDS011;13927;51.534;11.866;2022-11-20T00:11:09;24.67;;;15.55;;
26181;SDS011;13927;51.534;11.866;2022-11-20T00:13:41;26.95;;;16.73;;
26181;SDS011;13927;51.534;11.866;2022-11-20T00:16:09;20.75;;;14.45;;
26181;SDS011;13927;51.534;11.866;2022-11-20T00:18:37;22.27;;;14.30;;
26181;SDS011;13927;51.534;11.866;2022-11-20T00:21:07;23.90;;;14.93;;
26181;SDS011;13927;51.534;11.866;2022-11-20T00:23:38;24.98;;;14.52;;
26181;SDS011;13927;51.534;11.866;2022-11-20T00:26:04;23.48;;;14.15;;
26181;SDS011;13927;51.534;11.866;2022-11-20T00:28:32;21.73;;;13.63;;
26181;SDS011;13927;51.534;11.866;2022-11-20T00:31:09;24.92;;;14.43;;
26181;SDS011;13927;51.534;11.866;2022-11-20T00:33:37;24.10;;;13.48;;
26181;SDS011;13927;51.534;11.866;2022-11-20T00:36:08;25.80;;;13.55;;
26181;SDS011;13927;51.534;11.866;2022-11-20T00:41:03;23.45;;;13.32;;
26181;SDS011;13927;51.534;11.866;2022-11-20T00:43:32;22.80;;;13.25;;
26181;SDS011;13927;51.534;11.866;2022-11-20T00:45:58;23.55;;;13.55;;
26181;SDS011;13927;51.534;11.866;2022-11-20T00:48:26;22.08;;;13.32;;
26181;SDS011;13927;51.534;11.866;2022-11-20T00:50:53;21.27;;;12.60;;
26181;SDS011;13927;51.534;11.866;2022-11-20T00:53:19;21.02;;;13.27;;
26181;SDS011;13927;51.534;11.866;2022-11-20T00:55:52;21.23;;;13.00;;
26181;SDS011;13927;51.534;11.866;2022-11-20T00:58:20;22.27;;;13.00;;
26181;SDS011;13927;51.534;11.866;2022-11-20T01:00:46;22.33;;;13.25;;
26181;SDS011;13927;51.534;11.866;2022-11-20T01:03:12;22.70;;;14.07;;
26181;SDS011;13927;51.534;11.866;2022-11-20T01:05:38;24.85;;;13.57;;
26181;SDS011;13927;51.534;11.866;2022-11-20T01:08:04;19.85;;;12.57;;
26181;SDS011;13927;51.534;11.866;2022-11-20T01:10:29;22.90;;;13.57;;
26181;SDS011;13927;51.534;11.866;2022-11-20T01:12:55;21.65;;;13.38;;
26181;SDS011;13927;51.534;11.866;2022-11-20T01:16:33;26.88;;;13.32;;
26181;SDS011;13927;51.534;11.866;2022-11-20T01:19:04;23.35;;;13.10;;
26181;SDS011;13927;51.534;11.866;2022-11-20T01:21:34;24.20;;;14.00;;
26181;SDS011;13927;51.534;11.866;2022-11-20T01:24:03;21.15;;;13.38;;
26181;SDS011;13927;51.534;11.866;2022-11-20T01:26:32;23.85;;;14.75;;
26181;SDS011;13927;51.534;11.866;2022-11-20T01:29:01;21.77;;;13.32;;
26181;SDS011;13927;51.534;11.866;2022-11-20T01:31:29;22.13;;;12.32;;
26181;SDS011;13927;51.534;11.866;2022-11-20T01:34:01;20.88;;;12.85;;
26181;SDS011;13927;51.534;11.866;2022-11-20T01:36:30;19.63;;;12.45;;
26181;SDS011;13927;51.534;11.866;2022-11-20T01:38:59;24.02;;;12.18;;
26181;SDS011;13927;51.534;11.866;2022-11-20T01:41:29;24.83;;;13.60;;
26181;SDS011;13927;51.534;11.866;2022-11-20T01:44:16;19.63;;;12.20;;
26181;SDS011;13927;51.534;11.866;2022-11-20T01:46:54;20.15;;;12.05;;
26181;SDS011;13927;51.534;11.866;2022-11-20T01:51:56;21.13;;;13.05;;
26181;SDS011;13927;51.534;11.866;2022-11-20T01:54:31;26.02;;;13.32;;
26181;SDS011;13927;51.534;11.866;2022-11-20T01:57:04;23.33;;;12.73;;
26181;SDS011;13927;51.534;11.866;2022-11-20T01:59:34;18.25;;;10.73;;
26181;SDS011;13927;51.534;11.866;2022-11-20T02:02:02;20.60;;;12.30;;
26181;SDS011;13927;51.534;11.866;2022-11-20T02:04:28;22.60;;;12.68;;
26181;SDS011;13927;51.534;11.866;2022-11-20T02:06:58;20.80;;;12.82;;
26181;SDS011;13927;51.534;11.866;2022-11-20T02:09:26;20.85;;;12.68;;
26181;SDS011;13927;51.534;11.866;2022-11-20T02:11:53;20.08;;;12.20;;
26181;SDS011;13927;51.534;11.866;2022-11-20T02:14:20;20.25;;;12.25;;
26181;SDS011;13927;51.534;11.866;2022-11-20T02:16:48;18.98;;;11.60;;
26181;SDS011;13927;51.534;11.866;2022-11-20T02:19:35;23.00;;;12.32;;
26181;SDS011;13927;51.534;11.866;2022-11-20T02:26:59;20.65;;;12.48;;
26181;SDS011;13927;51.534;11.866;2022-11-20T02:29:48;23.02;;;12.25;;
26181;SDS011;13927;51.534;11.866;2022-11-20T02:32:24;21.23;;;11.48;;
26181;SDS011;13927;51.534;11.866;2022-11-20T02:34:54;23.30;;;13.13;;
26181;SDS011;13927;51.534;11.866;2022-11-20T02:37:20;23.63;;;11.98;;
26181;SDS011;13927;51.534;11.866;2022-11-20T02:39:47;21.63;;;12.70;;
26181;SDS011;13927;51.534;11.866;2022-11-20T02:42:16;19.45;;;12.43;;
26181;SDS011;13927;51.534;11.866;2022-11-20T02:44:42;21.73;;;12.65;;
26181;SDS011;13927;51.534;11.866;2022-11-20T02:47:08;24.48;;;13.63;;
26181;SDS011;13927;51.534;11.866;2022-11-20T02:49:34;21.65;;;13.73;;
26181;SDS011;13927;51.534;11.866;2022-11-20T02:51:59;23.20;;;13.43;;
26181;SDS011;13927;51.534;11.866;2022-11-20T02:54:26;20.90;;;12.88;;
26181;SDS011;13927;51.534;11.866;2022-11-20T02:56:52;22.75;;;12.90;;
26181;SDS011;13927;51.534;11.866;2022-11-20T02:59:17;22.30;;;13.27;;
26181;SDS011;13927;51.534;11.866;2022-11-20T03:01:43;22.08;;;12.70;;
26181;SDS011;13927;51.534;11.866;2022-11-20T03:04:09;19.45;;;12.18;;
26181;SDS011;13927;51.534;11.866;2022-11-20T03:06:35;20.27;;;12.48;;
26181;SDS011;13927;51.534;11.866;2022-11-20T03:09:00;22.85;;;13.55;;
26181;SDS011;13927;51.534;11.866;2022-11-20T03:11:26;21.00;;;12.32;;
26181;SDS011;13927;51.534;11.866;2022-11-20T03:13:52;20.65;;;12.40;;
26181;SDS011;13927;51.534;11.866;2022-11-20T03:16:18;21.40;;;12.82;;
26181;SDS011;13927;51.534;11.866;2022-11-20T03:18:47;22.42;;;12.93;;
26181;SDS011;13927;51.534;11.866;2022-11-20T03:21:13;23.00;;;12.82;;
26181;SDS011;13927;51.534;11.866;2022-11-20T03:23:40;21.80;;;12.68;;
26181;SDS011;13927;51.534;11.866;2022-11-20T03:26:10;21.80;;;12.80;;
26181;SDS011;13927;51.534;11.866;2022-11-20T03:28:47;25.05;;;13.43;;
26181;SDS011;13927;51.534;11.866;2022-11-20T03:31:17;19.65;;;12.57;;
26181;SDS011;13927;51.534;11.866;2022-11-20T03:33:45;21.88;;;12.60;;
26181;SDS011;13927;51.534;11.866;2022-11-20T03:36:12;22.67;;;11.98;;
26181;SDS011;13927;51.534;11.866;2022-11-20T03:38:40;19.20;;;11.82;;
26181;SDS011;13927;51.534;11.866;2022-11-20T03:41:07;21.02;;;12.05;;
26181;SDS011;13927;51.534;11.866;2022-11-20T03:43:35;22.20;;;13.35;;
26181;SDS011;13927;51.534;11.866;2022-11-20T03:46:02;21.33;;;12.60;;
26181;SDS011;13927;51.534;11.866;2022-11-20T03:48:28;21.25;;;13.75;;
26181;SDS011;13927;51.534;11.866;2022-11-20T03:51:11;21.63;;;13.45;;
26181;SDS011;13927;51.534;11.866;2022-11-20T03:53:45;23.10;;;12.18;;
26181;SDS011;13927;51.534;11.866;2022-11-20T03:56:13;24.65;;;12.95;;
26181;SDS011;13927;51.534;11.866;2022-11-20T03:58:41;21.15;;;12.23;;
26181;SDS011;13927;51.534;11.866;2022-11-20T04:01:08;25.15;;;14.13;;
26181;SDS011;13927;51.534;11.866;2022-11-20T04:03:43;22.08;;;12.07;;
26181;SDS011;13927;51.534;11.866;2022-11-20T04:06:20;22.30;;;13.07;;
26181;SDS011;13927;51.534;11.866;2022-11-20T04:08:53;25.35;;;13.60;;
26181;SDS011;13927;51.534;11.866;2022-11-20T04:13:52;23.00;;;12.75;;
26181;SDS011;13927;51.534;11.866;2022-11-20T04:16:20;19.67;;;12.43;;
26181;SDS011;13927;51.534;11.866;2022-11-20T04:18:51;22.52;;;13.63;;
26181;SDS011;13927;51.534;11.866;2022-11-20T04:21:22;23.27;;;12.50;;
26181;SDS011;13927;51.534;11.866;2022-11-20T04:23:49;20.50;;;11.65;;
26181;SDS011;13927;51.534;11.866;2022-11-20T04:26:16;20.38;;;12.82;;
26181;SDS011;13927;51.534;11.866;2022-11-20T04:28:42;22.35;;;13.65;;
26181;SDS011;13927;51.534;11.866;2022-11-20T04:31:09;21.00;;;12.80;;
26181;SDS011;13927;51.534;11.866;2022-11-20T04:33:37;18.77;;;12.30;;
26181;SDS011;13927;51.534;11.866;2022-11-20T04:36:05;20.88;;;13.00;;
26181;SDS011;13927;51.534;11.866;2022-11-20T04:38:38;21.90;;;12.88;;
26181;SDS011;13927;51.534;11.866;2022-11-20T04:41:05;22.00;;;13.23;;
26181;SDS011;13927;51.534;11.866;2022-11-20T04:43:33;22.25;;;12.40;;
26181;SDS011;13927;51.534;11.866;2022-11-20T04:45:59;22.60;;;13.07;;
26181;SDS011;13927;51.534;11.866;2022-11-20T04:48:26;24.85;;;13.95;;
26181;SDS011;13927;51.534;11.866;2022-11-20T04:50:53;22.38;;;13.82;;
26181;SDS011;13927;51.534;11.866;2022-11-20T04:53:19;23.98;;;14.68;;
26181;SDS011;13927;51.534;11.866;2022-11-20T04:55:46;18.25;;;11.95;;
26181;SDS011;13927;51.534;11.866;2022-11-20T04:58:12;23.80;;;12.88;;
26181;SDS011;13927;51.534;11.866;2022-11-20T05:00:39;20.38;;;11.88;;
26181;SDS011;13927;51.534;11.866;2022-11-20T05:03:05;23.52;;;13.10;;
26181;SDS011;13927;51.534;11.866;2022-11-20T05:05:30;25.02;;;12.85;;
26181;SDS011;13927;51.534;11.866;2022-11-20T05:07:58;22.80;;;12.68;;
26181;SDS011;13927;51.534;11.866;2022-11-20T05:10:27;23.52;;;13.38;;
26181;SDS011;13927;51.534;11.866;2022-11-20T05:12:53;20.73;;;12.13;;
26181;SDS011;13927;51.534;11.866;2022-11-20T05:15:19;20.52;;;12.43;;
26181;SDS011;13927;51.534;11.866;2022-11-20T05:17:48;24.52;;;14.27;;
26181;SDS011;13927;51.534;11.866;2022-11-20T05:20:15;19.98;;;12.55;;
26181;SDS011;13927;51.534;11.866;2022-11-20T05:22:42;24.05;;;13.68;;
26181;SDS011;13927;51.534;11.866;2022-11-20T05:25:08;21.95;;;12.75;;
26181;SDS011;13927;51.534;11.866;2022-11-20T05:27:35;21.23;;;12.95;;
26181;SDS011;13927;51.534;11.866;2022-11-20T05:30:01;21.50;;;12.73;;
26181;SDS011;13927;51.534;11.866;2022-11-20T05:32:28;22.75;;;13.00;;
26181;SDS011;13927;51.534;11.866;2022-11-20T05:34:54;21.35;;;13.10;;
26181;SDS011;13927;51.534;11.866;2022-11-20T05:37:19;25.15;;;14.88;;
26181;SDS011;13927;51.534;11.866;2022-11-20T05:39:45;24.67;;;13.98;;
26181;SDS011;13927;51.534;11.866;2022-11-20T05:42:11;21.92;;;14.07;;
26181;SDS011;13927;51.534;11.866;2022-11-20T05:44:55;22.85;;;14.38;;
26181;SDS011;13927;51.534;11.866;2022-11-20T05:47:24;22.73;;;13.98;;
26181;SDS011;13927;51.534;11.866;2022-11-20T05:49:51;23.17;;;13.57;;
26181;SDS011;13927;51.534;11.866;2022-11-20T05:52:17;25.33;;;13.80;;
26181;SDS011;13927;51.534;11.866;2022-11-20T05:54:43;23.65;;;14.27;;
26181;SDS011;13927;51.534;11.866;2022-11-20T05:57:09;21.55;;;13.13;;
26181;SDS011;13927;51.534;11.866;2022-11-20T05:59:34;21.02;;;12.82;;
26181;SDS011;13927;51.534;11.866;2022-11-20T06:02:00;22.88;;;14.05;;
26181;SDS011;13927;51.534;11.866;2022-11-20T06:04:26;22.52;;;13.80;;
26181;SDS011;13927;51.534;11.866;2022-11-20T06:06:52;25.05;;;14.57;;
26181;SDS011;13927;51.534;11.866;2022-11-20T06:09:17;24.05;;;13.55;;
26181;SDS011;13927;51.534;11.866;2022-11-20T06:11:43;27.75;;;17.15;;
26181;SDS011;13927;51.534;11.866;2022-11-20T06:14:09;31.17;;;19.20;;
26181;SDS011;13927;51.534;11.866;2022-11-20T06:16:35;26.58;;;15.82;;
26181;SDS011;13927;51.534;11.866;2022-11-20T06:19:00;24.95;;;12.80;;
26181;SDS011;13927;51.534;11.866;2022-11-20T06:21:26;23.33;;;14.23;;
26181;SDS011;13927;51.534;11.866;2022-11-20T06:23:52;22.13;;;13.18;;
26181;SDS011;13927;51.534;11.866;2022-11-20T06:26:20;22.52;;;13.70;;
26181;SDS011;13927;51.534;11.866;2022-11-20T06:28:48;21.15;;;12.93;;
26181;SDS011;13927;51.534;11.866;2022-11-20T06:31:16;22.98;;;13.63;;
26181;SDS011;13927;51.534;11.866;2022-11-20T06:33:46;24.80;;;14.57;;
26181;SDS011;13927;51.534;11.866;2022-11-20T06:36:12;31.90;;;19.52;;
26181;SDS011;13927;51.534;11.866;2022-11-20T06:38:40;45.55;;;25.13;;
26181;SDS011;13927;51.534;11.866;2022-11-20T06:41:07;32.92;;;20.95;;
26181;SDS011;13927;51.534;11.866;2022-11-20T06:43:38;25.35;;;15.32;;
26181;SDS011;13927;51.534;11.866;2022-11-20T06:46:04;23.88;;;14.23;;
26181;SDS011;13927;51.534;11.866;2022-11-20T06:48:29;24.60;;;14.45;;
26181;SDS011;13927;51.534;11.866;2022-11-20T06:50:56;22.92;;;14.38;;
26181;SDS011;13927;51.534;11.866;2022-11-20T06:53:22;29.67;;;16.70;;
26181;SDS011;13927;51.534;11.866;2022-11-20T06:55:49;32.85;;;17.33;;
26181;SDS011;13927;51.534;11.866;2022-11-20T06:58:16;26.75;;;15.55;;
26181;SDS011;13927;51.534;11.866;2022-11-20T07:00:42;27.98;;;15.60;;
26181;SDS011;13927;51.534;11.866;2022-11-20T07:03:09;32.33;;;17.73;;
26181;SDS011;13927;51.534;11.866;2022-11-20T07:05:36;27.00;;;16.02;;
26181;SDS011;13927;51.534;11.866;2022-11-20T07:08:03;27.20;;;14.90;;
26181;SDS011;13927;51.534;11.866;2022-11-20T07:10:30;20.30;;;13.63;;
26181;SDS011;13927;51.534;11.866;2022-11-20T07:12:56;31.30;;;16.65;;
26181;SDS011;13927;51.534;11.866;2022-11-20T07:15:23;28.13;;;16.27;;
26181;SDS011;13927;51.534;11.866;2022-11-20T07:17:50;30.15;;;16.30;;
26181;SDS011;13927;51.534;11.866;2022-11-20T07:20:16;29.80;;;16.52;;
26181;SDS011;13927;51.534;11.866;2022-11-20T07:22:42;27.35;;;15.45;;
26181;SDS011;13927;51.534;11.866;2022-11-20T07:25:08;26.65;;;16.35;;
26181;SDS011;13927;51.534;11.866;2022-11-20T07:27:35;28.02;;;16.48;;
26181;SDS011;13927;51.534;11.866;2022-11-20T07:30:01;32.35;;;18.33;;
26181;SDS011;13927;51.534;11.866;2022-11-20T07:32:29;30.85;;;17.13;;
26181;SDS011;13927;51.534;11.866;2022-11-20T07:34:55;30.67;;;17.33;;
26181;SDS011;13927;51.534;11.866;2022-11-20T07:37:21;31.13;;;17.63;;
26181;SDS011;13927;51.534;11.866;2022-11-20T07:39:46;29.27;;;17.55;;
26181;SDS011;13927;51.534;11.866;2022-11-20T07:42:12;33.05;;;19.42;;
26181;SDS011;13927;51.534;11.866;2022-11-20T07:44:38;31.17;;;18.13;;
26181;SDS011;13927;51.534;11.866;2022-11-20T07:47:04;31.65;;;18.73;;
26181;SDS011;13927;51.534;11.866;2022-11-20T07:49:30;32.50;;;18.00;;
26181;SDS011;13927;51.534;11.866;2022-11-20T07:51:56;32.50;;;17.88;;
26181;SDS011;13927;51.534;11.866;2022-11-20T07:54:22;31.92;;;18.48;;
26181;SDS011;13927;51.534;11.866;2022-11-20T07:56:48;30.80;;;17.08;;
26181;SDS011;13927;51.534;11.866;2022-11-20T07:59:14;27.38;;;16.05;;
26181;SDS011;13927;51.534;11.866;2022-11-20T08:01:40;30.98;;;17.33;;
26181;SDS011;13927;51.534;11.866;2022-11-20T08:04:08;30.95;;;17.23;;
26181;SDS011;13927;51.534;11.866;2022-11-20T08:06:34;33.88;;;18.67;;
26181;SDS011;13927;51.534;11.866;2022-11-20T08:09:01;29.10;;;16.92;;
26181;SDS011;13927;51.534;11.866;2022-11-20T08:11:28;36.33;;;18.88;;
26181;SDS011;13927;51.534;11.866;2022-11-20T08:14:12;37.40;;;18.83;;
26181;SDS011;13927;51.534;11.866;2022-11-20T08:16:47;37.60;;;18.73;;
26181;SDS011;13927;51.534;11.866;2022-11-20T08:19:15;38.60;;;19.15;;
26181;SDS011;13927;51.534;11.866;2022-11-20T08:21:43;41.40;;;19.42;;
26181;SDS011;13927;51.534;11.866;2022-11-20T08:24:09;39.72;;;19.45;;
26181;SDS011;13927;51.534;11.866;2022-11-20T08:26:36;40.85;;;20.88;;
26181;SDS011;13927;51.534;11.866;2022-11-20T08:29:04;39.17;;;19.92;;
26181;SDS011;13927;51.534;11.866;2022-11-20T08:31:30;46.13;;;20.63;;
26181;SDS011;13927;51.534;11.866;2022-11-20T08:33:56;35.33;;;18.27;;
26181;SDS011;13927;51.534;11.866;2022-11-20T08:36:23;39.47;;;18.88;;
26181;SDS011;13927;51.534;11.866;2022-11-20T08:38:53;38.50;;;19.42;;
26181;SDS011;13927;51.534;11.866;2022-11-20T08:41:20;42.58;;;21.77;;
26181;SDS011;13927;51.534;11.866;2022-11-20T08:43:57;40.10;;;19.85;;
26181;SDS011;13927;51.534;11.866;2022-11-20T08:46:38;43.08;;;21.38;;
26181;SDS011;13927;51.534;11.866;2022-11-20T08:49:07;38.42;;;19.67;;
26181;SDS011;13927;51.534;11.866;2022-11-20T08:51:35;36.45;;;19.85;;
26181;SDS011;13927;51.534;11.866;2022-11-20T08:54:02;36.50;;;19.33;;
26181;SDS011;13927;51.534;11.866;2022-11-20T08:56:29;34.00;;;18.38;;
26181;SDS011;13927;51.534;11.866;2022-11-20T08:58:55;35.30;;;18.60;;
26181;SDS011;13927;51.534;11.866;2022-11-20T09:01:21;35.53;;;18.38;;
26181;SDS011;13927;51.534;11.866;2022-11-20T09:03:48;35.83;;;18.17;;
26181;SDS011;13927;51.534;11.866;2022-11-20T09:06:14;31.05;;;17.88;;
26181;SDS011;13927;51.534;11.866;2022-11-20T09:08:41;36.05;;;19.00;;
26181;SDS011;13927;51.534;11.866;2022-11-20T09:11:07;35.10;;;18.90;;
26181;SDS011;13927;51.534;11.866;2022-11-20T09:13:34;38.05;;;19.60;;
26181;SDS011;13927;51.534;11.866;2022-11-20T09:16:02;33.90;;;18.27;;
26181;SDS011;13927;51.534;11.866;2022-11-20T09:18:32;36.47;;;19.77;;
26181;SDS011;13927;51.534;11.866;2022-11-20T09:21:03;35.88;;;19.05;;
26181;SDS011;13927;51.534;11.866;2022-11-20T09:23:39;32.60;;;18.75;;
26181;SDS011;13927;51.534;11.866;2022-11-20T09:26:05;31.60;;;17.95;;
26181;SDS011;13927;51.534;11.866;2022-11-20T09:28:38;32.17;;;18.35;;
26181;SDS011;13927;51.534;11.866;2022-11-20T09:31:06;37.13;;;18.27;;
26181;SDS011;13927;51.534;11.866;2022-11-20T09:33:33;30.63;;;17.77;;
26181;SDS011;13927;51.534;11.866;2022-11-20T09:35:59;31.95;;;17.67;;
26181;SDS011;13927;51.534;11.866;2022-11-20T09:38:24;30.25;;;17.20;;
26181;SDS011;13927;51.534;11.866;2022-11-20T09:40:57;32.25;;;17.55;;
26181;SDS011;13927;51.534;11.866;2022-11-20T09:49:51;28.58;;;16.50;;
26181;SDS011;13927;51.534;11.866;2022-11-20T09:53:04;29.95;;;16.55;;
26181;SDS011;13927;51.534;11.866;2022-11-20T09:55:39;27.45;;;16.70;;
26181;SDS011;13927;51.534;11.866;2022-11-20T09:58:05;32.17;;;16.42;;
26181;SDS011;13927;51.534;11.866;2022-11-20T10:01:11;33.65;;;17.30;;
26181;SDS011;13927;51.534;11.866;2022-11-20T10:04:03;28.13;;;17.85;;
26181;SDS011;13927;51.534;11.866;2022-11-20T10:07:01;28.13;;;16.88;;
26181;SDS011;13927;51.534;11.866;2022-11-20T10:09:43;30.02;;;17.33;;
26181;SDS011;13927;51.534;11.866;2022-11-20T10:15:41;24.65;;;16.60;;
26181;SDS011;13927;51.534;11.866;2022-11-20T10:21:15;27.80;;;16.73;;
26181;SDS011;13927;51.534;11.866;2022-11-20T10:29:41;26.33;;;15.63;;
26181;SDS011;13927;51.534;11.866;2022-11-20T10:32:16;27.17;;;16.85;;
26181;SDS011;13927;51.534;11.866;2022-11-20T10:34:57;26.25;;;16.35;;
26181;SDS011;13927;51.534;11.866;2022-11-20T10:38:07;27.45;;;16.15;;
26181;SDS011;13927;51.534;11.866;2022-11-20T10:40:48;27.48;;;15.95;;
26181;SDS011;13927;51.534;11.866;2022-11-20T10:45:58;25.63;;;16.02;;
26181;SDS011;13927;51.534;11.866;2022-11-20T10:48:29;26.20;;;14.77;;
26181;SDS011;13927;51.534;11.866;2022-11-20T11:02:20;26.92;;;16.15;;
26181;SDS011;13927;51.534;11.866;2022-11-20T11:04:52;27.73;;;15.68;;
26181;SDS011;13927;51.534;11.866;2022-11-20T11:07:29;26.20;;;15.68;;
26181;SDS011;13927;51.534;11.866;2022-11-20T11:12:43;24.05;;;14.57;;
26181;SDS011;13927;51.534;11.866;2022-11-20T11:15:23;22.08;;;14.43;;
26181;SDS011;13927;51.534;11.866;2022-11-20T11:18:08;23.23;;;14.77;;
26181;SDS011;13927;51.534;11.866;2022-11-20T11:20:36;22.33;;;14.85;;
26181;SDS011;13927;51.534;11.866;2022-11-20T11:23:02;23.58;;;14.70;;
26181;SDS011;13927;51.534;11.866;2022-11-20T11:28:02;21.67;;;13.98;;
26181;SDS011;13927;51.534;11.866;2022-11-20T11:30:45;21.38;;;13.55;;
26181;SDS011;13927;51.534;11.866;2022-11-20T11:33:29;19.40;;;12.98;;
26181;SDS011;13927;51.534;11.866;2022-11-20T11:36:15;22.88;;;13.95;;
26181;SDS011;13927;51.534;11.866;2022-11-20T11:38:48;21.42;;;13.50;;
26181;SDS011;13927;51.534;11.866;2022-11-20T11:41:28;21.75;;;13.52;;
26181;SDS011;13927;51.534;11.866;2022-11-20T11:44:21;24.55;;;14.93;;
26181;SDS011;13927;51.534;11.866;2022-11-20T11:47:22;20.45;;;13.52;;
26181;SDS011;13927;51.534;11.866;2022-11-20T11:50:23;21.33;;;13.60;;
26181;SDS011;13927;51.534;11.866;2022-11-20T11:58:14;18.00;;;12.35;;
26181;SDS011;13927;51.534;11.866;2022-11-20T12:07:03;18.73;;;12.95;;
26181;SDS011;13927;51.534;11.866;2022-11-20T12:10:15;18.80;;;13.45;;
26181;SDS011;13927;51.534;11.866;2022-11-20T12:12:51;19.73;;;12.85;;
26181;SDS011;13927;51.534;11.866;2022-11-20T12:15:29;18.55;;;12.63;;
26181;SDS011;13927;51.534;11.866;2022-11-20T12:17:58;18.02;;;11.70;;
26181;SDS011;13927;51.534;11.866;2022-11-20T12:20:26;18.08;;;12.40;;
26181;SDS011;13927;51.534;11.866;2022-11-20T12:25:35;15.73;;;11.18;;
26181;SDS011;13927;51.534;11.866;2022-11-20T12:28:20;17.27;;;11.95;;
26181;SDS011;13927;51.534;11.866;2022-11-20T12:34:01;15.65;;;11.13;;
26181;SDS011;13927;51.534;11.866;2022-11-20T12:39:35;16.35;;;11.98;;
26181;SDS011;13927;51.534;11.866;2022-11-20T12:45:10;15.05;;;11.50;;
26181;SDS011;13927;51.534;11.866;2022-11-20T12:48:17;17.10;;;11.43;;
26181;SDS011;13927;51.534;11.866;2022-11-20T12:54:37;18.17;;;11.90;;
26181;SDS011;13927;51.534;11.866;2022-11-20T12:57:21;17.77;;;12.57;;
26181;SDS011;13927;51.534;11.866;2022-11-20T13:00:09;17.95;;;12.18;;
26181;SDS011;13927;51.534;11.866;2022-11-20T13:05:49;17.70;;;12.20;;
26181;SDS011;13927;51.534;11.866;2022-11-20T13:08:41;17.25;;;12.57;;
26181;SDS011;13927;51.534;11.866;2022-11-20T13:17:34;18.00;;;12.07;;
26181;SDS011;13927;51.534;11.866;2022-11-20T13:20:12;18.92;;;12.07;;
26181;SDS011;13927;51.534;11.866;2022-11-20T13:22:46;17.35;;;11.70;;
26181;SDS011;13927;51.534;11.866;2022-11-20T13:27:51;16.52;;;11.60;;
26181;SDS011;13927;51.534;11.866;2022-11-20T13:30:22;16.75;;;11.35;;
26181;SDS011;13927;51.534;11.866;2022-11-20T13:32:54;18.30;;;12.48;;
26181;SDS011;13927;51.534;11.866;2022-11-20T13:35:31;17.13;;;11.48;;
26181;SDS011;13927;51.534;11.866;2022-11-20T13:41:00;16.10;;;10.80;;
26181;SDS011;13927;51.534;11.866;2022-11-20T13:43:47;16.90;;;11.85;;
26181;SDS011;13927;51.534;11.866;2022-11-20T13:46:13;17.55;;;11.05;;
26181;SDS011;13927;51.534;11.866;2022-11-20T13:48:43;19.98;;;13.52;;
26181;SDS011;13927;51.534;11.866;2022-11-20T14:00:24;17.85;;;11.65;;
26181;SDS011;13927;51.534;11.866;2022-11-20T14:05:34;14.48;;;11.50;;
26181;SDS011;13927;51.534;11.866;2022-11-20T14:08:14;18.05;;;12.07;;
26181;SDS011;13927;51.534;11.866;2022-11-20T14:10:51;18.08;;;11.45;;
26181;SDS011;13927;51.534;11.866;2022-11-20T14:13:28;15.25;;;10.65;;
26181;SDS011;13927;51.534;11.866;2022-11-20T14:15:56;15.38;;;10.25;;
26181;SDS011;13927;51.534;11.866;2022-11-20T14:18:25;17.20;;;11.23;;
26181;SDS011;13927;51.534;11.866;2022-11-20T14:20:52;15.60;;;11.10;;
26181;SDS011;13927;51.534;11.866;2022-11-20T14:23:27;15.48;;;10.63;;
26181;SDS011;13927;51.534;11.866;2022-11-20T14:25:54;16.00;;;11.32;;
26181;SDS011;13927;51.534;11.866;2022-11-20T14:28:27;15.15;;;11.45;;
26181;SDS011;13927;51.534;11.866;2022-11-20T14:30:56;14.68;;;10.15;;
26181;SDS011;13927;51.534;11.866;2022-11-20T14:33:22;15.60;;;11.13;;
26181;SDS011;13927;51.534;11.866;2022-11-20T14:35:52;14.27;;;9.98;;
26181;SDS011;13927;51.534;11.866;2022-11-20T14:38:24;14.98;;;10.82;;
26181;SDS011;13927;51.534;11.866;2022-11-20T14:40:53;15.30;;;11.50;;
26181;SDS011;13927;51.534;11.866;2022-11-20T14:45:46;16.23;;;10.93;;
26181;SDS011;13927;51.534;11.866;2022-11-20T14:48:22;15.27;;;10.70;;
26181;SDS011;13927;51.534;11.866;2022-11-20T14:51:03;15.65;;;11.32;;
26181;SDS011;13927;51.534;11.866;2022-11-20T14:53:29;16.05;;;10.48;;
26181;SDS011;13927;51.534;11.866;2022-11-20T14:55:56;16.60;;;11.63;;
26181;SDS011;13927;51.534;11.866;2022-11-20T14:58:28;17.13;;;12.05;;
26181;SDS011;13927;51.534;11.866;2022-11-20T15:01:04;17.63;;;11.75;;
26181;SDS011;13927;51.534;11.866;2022-11-20T15:03:36;16.95;;;11.95;;
26181;SDS011;13927;51.534;11.866;2022-11-20T15:06:05;13.43;;;9.03;;
26181;SDS011;13927;51.534;11.866;2022-11-20T15:08:34;14.88;;;11.02;;
26181;SDS011;13927;51.534;11.866;2022-11-20T15:11:00;17.35;;;11.73;;
26181;SDS011;13927;51.534;11.866;2022-11-20T15:13:31;16.50;;;11.48;;
26181;SDS011;13927;51.534;11.866;2022-11-20T15:18:31;16.17;;;11.10;;
26181;SDS011;13927;51.534;11.866;2022-11-20T15:21:03;17.38;;;12.52;;
26181;SDS011;13927;51.534;11.866;2022-11-20T15:23:41;15.20;;;11.77;;
26181;SDS011;13927;51.534;11.866;2022-11-20T15:26:07;17.20;;;11.13;;
26181;SDS011;13927;51.534;11.866;2022-11-20T15:28:36;16.55;;;11.07;;
26181;SDS011;13927;51.534;11.866;2022-11-20T15:31:12;21.02;;;11.90;;
26181;SDS011;13927;51.534;11.866;2022-11-20T15:33:40;17.38;;;10.88;;
26181;SDS011;13927;51.534;11.866;2022-11-20T15:36:07;16.83;;;10.77;;
26181;SDS011;13927;51.534;11.866;2022-11-20T15:38:34;16.33;;;10.88;;
26181;SDS011;13927;51.534;11.866;2022-11-20T15:41:00;15.00;;;10.27;;
26181;SDS011;13927;51.534;11.866;2022-11-20T15:43:26;17.90;;;11.55;;
26181;SDS011;13927;51.534;11.866;2022-11-20T15:46:35;17.85;;;10.95;;
26181;SDS011;13927;51.534;11.866;2022-11-20T15:48:43;18.40;;;11.90;;
26181;SDS011;13927;51.534;11.866;2022-11-20T15:53:36;18.33;;;11.57;;
26181;SDS011;13927;51.534;11.866;2022-11-20T15:56:04;17.38;;;10.93;;
26181;SDS011;13927;51.534;11.866;2022-11-20T15:58:30;17.38;;;11.15;;
26181;SDS011;13927;51.534;11.866;2022-11-20T16:00:55;20.10;;;11.93;;
26181;SDS011;13927;51.534;11.866;2022-11-20T16:03:21;18.38;;;11.05;;
26181;SDS011;13927;51.534;11.866;2022-11-20T16:05:47;42.03;;;26.48;;
26181;SDS011;13927;51.534;11.866;2022-11-20T16:08:13;40.70;;;24.77;;
26181;SDS011;13927;51.534;11.866;2022-11-20T16:10:39;17.77;;;11.13;;
26181;SDS011;13927;51.534;11.866;2022-11-20T16:13:05;17.85;;;11.40;;
26181;SDS011;13927;51.534;11.866;2022-11-20T16:15:57;20.10;;;11.35;;
26181;SDS011;13927;51.534;11.866;2022-11-20T16:18:30;26.13;;;16.00;;
26181;SDS011;13927;51.534;11.866;2022-11-20T16:20:57;81.78;;;39.03;;